Time;durP1;ratioP1;P1;durP2;ratioP2;P2;SDS_P1;SDS_P2;PMS_P1;PMS_P2;Temp;Humidity;BMP_temperature;BMP_pressure;BME280_temperature;BME280_humidity;BME280_pressure;Samples;Min_cycle;Max_cycle;Signal;HPM_P1;HPM_P2
2023/04/18 00:01:48;;;;;;;19.45;9.63;;;6.80;99.90;;;;;;5057213;28;20040;-80
2023/04/18 00:04:16;;;;;;;18.60;9.57;;;6.80;99.90;;;;;;5056736;28;20436;-79
2023/04/18 00:06:42;;;;;;;19.70;9.70;;;6.80;99.90;;;;;;5056903;28;20049;-78
2023/04/18 00:09:08;;;;;;;19.00;9.40;;;6.80;99.90;;;;;;5055631;28;20049;-80
2023/04/18 00:11:34;;;;;;;22.88;9.15;;;6.90;99.90;;;;;;5059261;28;20124;-79
2023/04/18 00:13:59;;;;;;;18.88;8.68;;;6.90;99.90;;;;;;5057951;28;20540;-81
2023/04/18 00:16:26;;;;;;;20.95;9.32;;;6.90;99.90;;;;;;5057403;28;20045;-81
2023/04/18 00:18:52;;;;;;;18.85;9.05;;;6.90;99.90;;;;;;5057120;28;20127;-80
2023/04/18 00:21:18;;;;;;;20.45;8.65;;;6.80;99.90;;;;;;5056054;28;20049;-77
2023/04/18 00:23:44;;;;;;;18.65;9.18;;;6.70;99.90;;;;;;5057976;28;20378;-82
2023/04/18 00:26:10;;;;;;;19.55;9.88;;;6.70;99.90;;;;;;5038392;28;20045;-80
2023/04/18 00:28:36;;;;;;;20.17;8.98;;;6.70;99.90;;;;;;5056407;28;20052;-79
2023/04/18 00:31:02;;;;;;;18.42;9.02;;;6.60;99.90;;;;;;5057176;28;20080;-81
2023/04/18 00:33:28;;;;;;;20.48;10.02;;;6.70;99.90;;;;;;5057104;28;20124;-79
2023/04/18 00:35:53;;;;;;;22.17;9.50;;;6.60;99.90;;;;;;5057762;28;20127;-77
2023/04/18 00:38:19;;;;;;;17.98;9.30;;;6.60;99.90;;;;;;5058743;28;20045;-80
2023/04/18 00:40:45;;;;;;;19.88;9.73;;;6.60;99.90;;;;;;5057103;28;20049;-79
2023/04/18 00:43:14;;;;;;;20.80;9.95;;;6.60;99.90;;;;;;5056227;28;20461;-81
2023/04/18 00:45:40;;;;;;;21.33;9.95;;;6.50;99.90;;;;;;5057275;28;20067;-81
2023/04/18 00:48:05;;;;;;;23.83;12.55;;;6.50;99.90;;;;;;5055775;28;20045;-78
2023/04/18 00:50:31;;;;;;;20.75;10.15;;;6.50;99.90;;;;;;5055156;28;20041;-77
2023/04/18 00:52:57;;;;;;;18.13;9.52;;;6.40;99.90;;;;;;5057215;28;20163;-80
2023/04/18 00:55:23;;;;;;;21.67;10.40;;;6.40;99.90;;;;;;5054384;28;20041;-79
2023/04/18 00:57:50;;;;;;;18.75;9.23;;;6.40;99.90;;;;;;5054808;28;20048;-78
2023/04/18 01:00:16;;;;;;;19.85;9.68;;;6.30;99.90;;;;;;5056638;28;20047;-77
2023/04/18 01:02:42;;;;;;;20.50;9.45;;;6.30;99.90;;;;;;5040444;28;20053;-81
2023/04/18 01:05:08;;;;;;;20.80;10.43;;;6.20;99.90;;;;;;5057456;28;20374;-82
2023/04/18 01:07:36;;;;;;;23.25;10.10;;;6.20;99.90;;;;;;5057255;28;20053;-82
2023/04/18 01:10:03;;;;;;;18.33;9.68;;;6.20;99.90;;;;;;5055940;28;20106;-78
2023/04/18 01:12:29;;;;;;;20.23;9.90;;;6.10;99.90;;;;;;5055517;28;20481;-81
2023/04/18 01:14:55;;;;;;;21.30;10.23;;;6.10;99.90;;;;;;5055779;28;20106;-81
2023/04/18 01:17:22;;;;;;;23.80;10.38;;;6.10;99.90;;;;;;5056491;28;20049;-79
2023/04/18 01:19:48;;;;;;;20.58;10.02;;;6.10;99.90;;;;;;5055319;28;20084;-80
2023/04/18 01:22:14;;;;;;;23.75;10.02;;;6.00;99.90;;;;;;5055566;28;20461;-75
2023/04/18 01:24:41;;;;;;;22.77;9.60;;;6.00;99.90;;;;;;5056320;28;20056;-77
2023/04/18 01:27:09;;;;;;;23.13;10.18;;;6.00;99.90;;;;;;5056360;28;20063;-81
2023/04/18 01:29:35;;;;;;;19.52;9.75;;;5.90;99.90;;;;;;5055126;28;20053;-80
2023/04/18 01:32:01;;;;;;;21.63;10.48;;;5.80;99.90;;;;;;5055166;28;20057;-80
2023/04/18 01:34:27;;;;;;;19.55;9.77;;;5.80;99.90;;;;;;5039912;28;20088;-76
2023/04/18 01:36:52;;;;;;;20.05;10.20;;;5.70;99.90;;;;;;5053703;28;20171;-81
2023/04/18 01:39:18;;;;;;;26.38;11.50;;;5.70;99.90;;;;;;5037701;28;20045;-79
2023/04/18 01:41:44;;;;;;;20.30;10.70;;;5.70;99.90;;;;;;5038884;28;20044;-77
2023/04/18 01:44:09;;;;;;;21.13;10.52;;;5.70;99.90;;;;;;5056232;28;20049;-82
2023/04/18 01:46:35;;;;;;;22.60;12.65;;;5.60;99.90;;;;;;5057030;28;20049;-78
2023/04/18 01:49:01;;;;;;;22.88;11.18;;;5.60;99.90;;;;;;5056389;28;20045;-80
2023/04/18 01:51:27;;;;;;;21.15;11.77;;;5.60;99.90;;;;;;5054876;28;20052;-78
2023/04/18 01:53:53;;;;;;;21.23;10.73;;;5.60;99.90;;;;;;5036998;28;20053;-82
2023/04/18 01:56:18;;;;;;;23.45;12.82;;;5.50;99.90;;;;;;5054963;28;20049;-80
2023/04/18 01:58:44;;;;;;;24.60;12.65;;;5.50;99.90;;;;;;5057520;28;20501;-80
2023/04/18 02:01:10;;;;;;;21.05;11.35;;;5.50;99.90;;;;;;5055559;28;20049;-78
2023/04/18 02:03:36;;;;;;;22.90;10.98;;;5.50;99.90;;;;;;5058532;28;20049;-78
2023/04/18 02:06:04;;;;;;;22.73;11.55;;;5.50;99.90;;;;;;5054635;28;20508;-78
2023/04/18 02:08:31;;;;;;;19.85;10.15;;;5.60;99.90;;;;;;5055973;28;20044;-79
2023/04/18 02:10:57;;;;;;;;;;;5.60;99.90;;;;;;5053446;28;20065;-79
2023/04/18 02:13:23;;;;;;;21.63;9.10;;;5.60;99.90;;;;;;5054804;28;19920;-79
2023/04/18 02:15:49;;;;;;;24.75;10.95;;;5.70;99.90;;;;;;5054474;28;20481;-78
2023/04/18 02:18:16;;;;;;;20.33;10.13;;;5.70;99.90;;;;;;5057010;28;20040;-78
2023/04/18 02:20:42;;;;;;;22.63;11.40;;;5.70;99.90;;;;;;5057480;28;20049;-78
2023/04/18 02:23:07;;;;;;;22.98;11.15;;;5.80;99.90;;;;;;5056611;28;20515;-77
2023/04/18 02:25:33;;;;;;;23.48;10.38;;;5.80;99.90;;;;;;5056496;28;20143;-82
2023/04/18 02:27:59;;;;;;;22.63;10.52;;;5.80;99.90;;;;;;5056585;28;20045;-77
2023/04/18 02:30:25;;;;;;;28.13;10.85;;;5.90;99.90;;;;;;5039011;28;20136;-78
2023/04/18 02:32:58;;;;;;;20.00;10.23;;;5.90;99.90;;;;;;5061489;28;20466;-83
2023/04/18 02:35:24;;;;;;;22.27;10.82;;;5.90;99.90;;;;;;5062702;28;20398;-80
2023/04/18 02:37:50;;;;;;;22.60;10.70;;;5.90;99.90;;;;;;5062328;28;20354;-80
2023/04/18 02:40:17;;;;;;;22.80;10.20;;;5.90;99.90;;;;;;5062017;28;20041;-79
2023/04/18 02:42:43;;;;;;;23.80;11.52;;;5.90;99.90;;;;;;5062008;28;20040;-79
2023/04/18 02:45:09;;;;;;;22.38;10.77;;;6.00;99.90;;;;;;5061918;28;20148;-79
2023/04/18 02:47:35;;;;;;;22.40;10.52;;;5.90;99.90;;;;;;5064714;28;20045;-79
2023/04/18 02:50:04;;;;;;;25.50;11.75;;;6.00;99.90;;;;;;5060118;28;20048;-78
2023/04/18 02:52:30;;;;;;;22.13;10.35;;;6.00;99.90;;;;;;5059979;28;20049;-80
2023/04/18 02:54:56;;;;;;;22.10;10.55;;;6.00;99.90;;;;;;5059022;28;20045;-78
2023/04/18 02:57:22;;;;;;;21.27;10.65;;;6.10;99.90;;;;;;5055604;28;20131;-78
2023/04/18 02:59:47;;;;;;;24.25;10.48;;;6.10;99.90;;;;;;5053733;28;20056;-83
2023/04/18 03:02:13;;;;;;;21.45;10.82;;;6.10;99.90;;;;;;5052997;28;20041;-79
2023/04/18 03:04:39;;;;;;;23.45;10.35;;;6.00;99.90;;;;;;5053910;28;20040;-79
2023/04/18 03:07:04;;;;;;;19.88;9.30;;;6.00;99.90;;;;;;5057582;28;20067;-82
2023/04/18 03:09:30;;;;;;;22.05;10.85;;;6.00;99.90;;;;;;5055528;28;20087;-77
2023/04/18 03:11:56;;;;;;;22.77;10.38;;;6.00;99.90;;;;;;5057114;28;20045;-79
2023/04/18 03:14:21;;;;;;;22.20;10.30;;;6.00;99.90;;;;;;5055075;28;20385;-80
2023/04/18 03:16:47;;;;;;;25.80;10.27;;;5.90;99.90;;;;;;5054536;28;20052;-77
2023/04/18 03:19:13;;;;;;;24.27;11.80;;;5.90;99.90;;;;;;5037082;28;20134;-78
2023/04/18 03:21:39;;;;;;;25.65;11.70;;;5.90;99.90;;;;;;5041820;28;20037;-77
2023/04/18 03:24:05;;;;;;;24.55;11.02;;;5.80;99.90;;;;;;5058270;28;20476;-78
2023/04/18 03:26:30;;;;;;;24.60;10.80;;;5.80;99.90;;;;;;5057205;28;20052;-77
2023/04/18 03:28:56;;;;;;;26.38;11.18;;;5.80;99.90;;;;;;5056988;28;20477;-79
2023/04/18 03:31:22;;;;;;;24.42;12.00;;;5.70;99.90;;;;;;5058537;28;20079;-79
2023/04/18 03:33:48;;;;;;;29.20;12.10;;;5.80;99.90;;;;;;5058632;28;20048;-80
2023/04/18 03:36:16;;;;;;;24.80;11.63;;;5.70;99.90;;;;;;5058813;28;20385;-80
2023/04/18 03:38:43;;;;;;;25.13;11.77;;;5.70;99.90;;;;;;5057437;28;20119;-79
2023/04/18 03:41:08;;;;;;;29.58;11.15;;;5.70;99.90;;;;;;5059253;28;20045;-76
2023/04/18 03:43:34;;;;;;;27.48;11.55;;;5.70;99.90;;;;;;5059775;28;20106;-77
2023/04/18 03:46:00;;;;;;;25.60;12.23;;;5.70;99.90;;;;;;5057848;28;20049;-80
2023/04/18 03:48:27;;;;;;;26.15;11.55;;;5.70;99.90;;;;;;5060248;28;20040;-78
2023/04/18 03:50:53;;;;;;;26.55;13.10;;;5.80;99.90;;;;;;5041378;28;20049;-79
2023/04/18 03:53:19;;;;;;;31.38;11.85;;;5.90;99.90;;;;;;5058738;28;20469;-80
2023/04/18 03:55:44;;;;;;;25.77;11.45;;;5.90;99.90;;;;;;5056432;28;20119;-79
2023/04/18 03:58:10;;;;;;;25.92;11.00;;;5.90;99.90;;;;;;5059299;28;20543;-80
2023/04/18 04:00:36;;;;;;;26.25;12.45;;;6.00;99.90;;;;;;5056923;28;20465;-79
2023/04/18 04:03:02;;;;;;;27.42;12.45;;;6.00;99.90;;;;;;5058054;28;20068;-78
2023/04/18 04:05:27;;;;;;;28.30;13.20;;;6.00;99.90;;;;;;5040261;28;20049;-80
2023/04/18 04:07:53;;;;;;;26.48;11.45;;;6.10;99.90;;;;;;5058420;28;20409;-81
2023/04/18 04:10:19;;;;;;;27.70;11.63;;;6.10;99.90;;;;;;5060130;28;20059;-77
2023/04/18 04:12:45;;;;;;;26.23;11.73;;;6.20;99.90;;;;;;5060179;28;20057;-79
2023/04/18 04:15:11;;;;;;;26.13;11.13;;;6.20;99.90;;;;;;5060026;28;20070;-80
2023/04/18 04:17:37;;;;;;;30.38;11.65;;;6.20;99.90;;;;;;5059227;28;20478;-77
2023/04/18 04:20:04;;;;;;;27.17;12.90;;;6.20;99.90;;;;;;5060211;28;20040;-77
2023/04/18 04:22:30;;;;;;;27.67;11.43;;;6.30;99.90;;;;;;5059704;28;20084;-80
2023/04/18 04:24:56;;;;;;;28.77;11.38;;;6.30;99.90;;;;;;5061061;28;20041;-77
2023/04/18 04:27:23;;;;;;;25.63;11.85;;;6.40;99.90;;;;;;5060255;28;20092;-76
2023/04/18 04:29:51;;;;;;;;;;;6.40;99.90;;;;;;5063340;28;20527;-78
2023/04/18 04:32:17;;;;;;;25.95;10.68;;;6.40;99.90;;;;;;5063320;28;19927;-78
2023/04/18 04:34:45;;;;;;;24.88;11.57;;;6.40;99.90;;;;;;5058919;28;20060;-80
2023/04/18 04:37:17;;;;;;;24.60;10.98;;;6.40;99.90;;;;;;5042984;28;20056;-78
2023/04/18 04:39:43;;;;;;;25.60;10.70;;;6.40;99.90;;;;;;5023593;28;20049;-79
2023/04/18 04:42:11;;;;;;;22.65;9.85;;;6.40;99.90;;;;;;5058109;28;20067;-79
2023/04/18 04:44:36;;;;;;;;;;;6.50;99.90;;;;;;5056867;28;20060;-79
2023/04/18 04:47:02;;;;;;;27.53;10.80;;;6.50;99.90;;;;;;5057833;28;20015;-78
2023/04/18 04:49:28;;;;;;;29.23;12.07;;;6.40;99.90;;;;;;5057991;28;20476;-80
2023/04/18 04:51:53;;;;;;;29.35;12.25;;;6.50;99.90;;;;;;5057660;28;20048;-81
2023/04/18 04:54:19;;;;;;;27.15;11.57;;;6.60;99.90;;;;;;5057923;28;20045;-73
2023/04/18 04:56:45;;;;;;;26.23;10.80;;;6.60;99.90;;;;;;5056509;28;20105;-78
2023/04/18 04:59:11;;;;;;;31.38;12.65;;;6.60;99.90;;;;;;5057023;28;20401;-79
2023/04/18 05:01:36;;;;;;;28.33;11.70;;;6.70;99.90;;;;;;5058675;28;20357;-80
2023/04/18 05:04:02;;;;;;;29.02;12.98;;;6.70;99.90;;;;;;5058235;28;20049;-80
2023/04/18 05:06:28;;;;;;;30.20;12.65;;;6.70;99.90;;;;;;5058034;28;20053;-79
2023/04/18 05:08:56;;;;;;;37.08;13.57;;;6.80;99.90;;;;;;5057958;28;20087;-79
2023/04/18 05:11:22;;;;;;;28.77;12.27;;;6.70;99.90;;;;;;5059389;28;20049;-76
2023/04/18 05:13:48;;;;;;;32.42;13.07;;;6.70;99.90;;;;;;5058675;28;20048;-82
2023/04/18 05:16:13;;;;;;;33.45;13.65;;;6.70;99.90;;;;;;5058520;28;20055;-76
2023/04/18 05:18:40;;;;;;;36.00;13.40;;;6.70;99.90;;;;;;5058635;28;20071;-77
2023/04/18 05:21:06;;;;;;;38.50;14.13;;;6.70;99.90;;;;;;5057799;28;20084;-77
2023/04/18 05:23:35;;;;;;;33.38;13.48;;;6.80;99.90;;;;;;5058446;28;20053;-76
2023/04/18 05:26:02;;;;;;;31.98;13.52;;;6.80;99.90;;;;;;5056111;28;20127;-75
2023/04/18 05:28:28;;;;;;;32.60;13.65;;;6.80;99.90;;;;;;5054052;28;20447;-77
2023/04/18 05:30:59;;;;;;;31.05;13.20;;;6.80;99.90;;;;;;5056092;28;20036;-77
2023/04/18 05:33:29;;;;;;;35.22;13.80;;;6.70;99.90;;;;;;5055931;28;20056;-77
2023/04/18 05:35:55;;;;;;;35.63;14.02;;;6.80;99.90;;;;;;5056322;28;20051;-76
2023/04/18 05:38:21;;;;;;;36.97;14.43;;;6.80;99.90;;;;;;5055035;28;20048;-76
2023/04/18 05:40:49;;;;;;;32.60;14.35;;;6.70;99.90;;;;;;5055462;28;20111;-77
2023/04/18 05:43:19;;;;;;;34.40;15.23;;;6.80;99.90;;;;;;5053674;28;20051;-77
2023/04/18 05:45:45;;;;;;;38.53;15.00;;;6.80;99.90;;;;;;5039569;28;20068;-77
2023/04/18 05:48:11;;;;;;;34.08;13.45;;;6.90;99.90;;;;;;5038512;28;20049;-75
2023/04/18 05:50:37;;;;;;;37.30;15.63;;;6.90;99.90;;;;;;5057450;28;20073;-78
2023/04/18 05:53:02;;;;;;;40.55;15.20;;;6.90;99.90;;;;;;5056527;28;20045;-79
2023/04/18 05:55:28;;;;;;;34.67;14.32;;;6.90;99.90;;;;;;5057092;28;20040;-76
2023/04/18 05:57:54;;;;;;;34.05;14.00;;;6.90;99.90;;;;;;5056612;28;20048;-75
2023/04/18 06:00:20;;;;;;;40.35;15.00;;;7.00;99.90;;;;;;5056452;28;20384;-78
2023/04/18 06:02:45;;;;;;;33.63;14.60;;;7.00;99.90;;;;;;5039358;28;20420;-77
2023/04/18 06:05:11;;;;;;;36.55;15.75;;;7.00;99.90;;;;;;5058935;28;20040;-79
2023/04/18 06:07:37;;;;;;;42.67;20.38;;;7.00;99.90;;;;;;5057108;28;20094;-80
2023/04/18 06:10:07;;;;;;;43.78;16.48;;;6.80;99.90;;;;;;5054623;28;20106;-77
2023/04/18 06:12:33;;;;;;;34.63;14.65;;;6.90;99.90;;;;;;5056189;28;20473;-80
2023/04/18 06:14:59;;;;;;;40.35;15.70;;;6.90;99.90;;;;;;5057867;28;20041;-79
2023/04/18 06:17:25;;;;;;;37.78;14.40;;;7.00;99.90;;;;;;5055391;28;20068;-77
2023/04/18 06:19:50;;;;;;;40.28;16.02;;;7.10;99.90;;;;;;5054382;28;20063;-79
2023/04/18 06:22:16;;;;;;;38.05;14.82;;;7.10;99.90;;;;;;5055051;28;20041;-80
2023/04/18 06:24:42;;;;;;;38.60;14.75;;;7.20;99.90;;;;;;5038772;28;20510;-79
2023/04/18 06:27:08;;;;;;;40.40;16.45;;;7.30;99.90;;;;;;5057262;28;20049;-77
2023/04/18 06:29:34;;;;;;;34.03;14.50;;;7.30;99.90;;;;;;5057342;28;20048;-80
2023/04/18 06:31:59;;;;;;;37.15;15.18;;;7.40;99.90;;;;;;5056881;28;20370;-82
2023/04/18 06:34:25;;;;;;;35.95;14.95;;;7.50;99.90;;;;;;5056258;28;20124;-76
2023/04/18 06:36:51;;;;;;;37.47;14.18;;;7.60;99.90;;;;;;5056008;28;20045;-80
2023/04/18 06:39:17;;;;;;;41.20;14.73;;;7.80;99.90;;;;;;5054733;28;20127;-79
2023/04/18 06:41:43;;;;;;;38.97;15.50;;;7.80;99.90;;;;;;5056135;28;20041;-77
2023/04/18 06:44:08;;;;;;;32.83;14.07;;;7.90;99.90;;;;;;5056227;28;20048;-76
2023/04/18 06:46:34;;;;;;;37.40;15.55;;;8.00;99.90;;;;;;5055892;28;20072;-78
2023/04/18 06:49:00;;;;;;;36.78;15.48;;;8.00;99.90;;;;;;5055739;28;20047;-79
2023/04/18 06:51:26;;;;;;;38.47;17.05;;;8.10;99.90;;;;;;5055446;28;20078;-79
2023/04/18 06:53:52;;;;;;;35.20;15.10;;;8.10;99.90;;;;;;5056919;28;20052;-76
2023/04/18 06:56:21;;;;;;;44.33;16.52;;;8.20;99.90;;;;;;5060580;28;20509;-78
2023/04/18 06:58:48;;;;;;;36.60;15.32;;;8.40;99.90;;;;;;5060536;28;20424;-77
2023/04/18 07:01:13;;;;;;;41.80;15.43;;;8.50;99.90;;;;;;5059869;28;20473;-74
2023/04/18 07:03:39;;;;;;;40.78;16.30;;;8.60;99.90;;;;;;5058200;28;20053;-79
2023/04/18 07:06:07;;;;;;;36.22;15.05;;;8.40;99.90;;;;;;5059848;28;20047;-77
2023/04/18 07:08:34;;;;;;;41.35;17.35;;;8.50;99.90;;;;;;5058790;28;20076;-78
2023/04/18 07:10:59;;;;;;;38.75;17.55;;;8.40;99.90;;;;;;5059787;28;20053;-78
2023/04/18 07:13:25;;;;;;;35.50;15.07;;;8.40;99.90;;;;;;5057494;28;20100;-78
2023/04/18 07:15:51;;;;;;;39.53;15.60;;;8.30;99.90;;;;;;5058293;28;20091;-83
2023/04/18 07:18:17;;;;;;;38.75;15.93;;;8.50;99.90;;;;;;5058294;28;20135;-81
2023/04/18 07:20:43;;;;;;;37.50;16.40;;;8.50;99.90;;;;;;5058434;28;20041;-79
2023/04/18 07:23:09;;;;;;;36.28;14.38;;;8.60;99.90;;;;;;5058258;28;20178;-78
2023/04/18 07:25:35;;;;;;;39.38;14.95;;;8.70;99.90;;;;;;5058627;28;20056;-77
2023/04/18 07:28:01;;;;;;;35.80;14.57;;;8.80;99.90;;;;;;5058372;28;20041;-77
2023/04/18 07:30:27;;;;;;;34.50;14.90;;;8.80;99.90;;;;;;5057706;28;20326;-79
2023/04/18 07:32:53;;;;;;;35.05;14.40;;;8.90;99.90;;;;;;5056586;28;20461;-76
2023/04/18 07:35:19;;;;;;;39.53;14.40;;;9.00;99.90;;;;;;5056738;28;20049;-79
2023/04/18 07:37:45;;;;;;;38.60;13.85;;;9.00;99.90;;;;;;5056124;28;20040;-76
2023/04/18 07:40:11;;;;;;;34.88;14.63;;;9.00;99.90;;;;;;5055905;28;20071;-78
2023/04/18 07:42:37;;;;;;;36.67;14.43;;;9.10;99.90;;;;;;5057225;28;20033;-78
2023/04/18 07:45:03;;;;;;;35.53;13.77;;;9.10;99.90;;;;;;5057304;28;20091;-76
2023/04/18 07:47:28;;;;;;;35.75;13.77;;;9.20;99.90;;;;;;5057276;28;20053;-81
2023/04/18 07:49:55;;;;;;;28.02;11.82;;;9.40;99.90;;;;;;5058791;28;20045;-77
2023/04/18 07:52:21;;;;;;;31.30;13.20;;;9.40;99.90;;;;;;5059308;28;20481;-78
2023/04/18 07:54:47;;;;;;;29.77;12.65;;;9.40;99.90;;;;;;5059797;28;20060;-77
2023/04/18 07:57:12;;;;;;;29.17;12.82;;;9.30;99.90;;;;;;5060997;28;20125;-81
2023/04/18 07:59:38;;;;;;;33.72;12.82;;;9.10;99.90;;;;;;5059770;28;20045;-77
2023/04/18 08:02:04;;;;;;;35.08;13.18;;;9.10;99.90;;;;;;5059821;28;20048;-74
2023/04/18 08:04:30;;;;;;;32.00;13.05;;;9.30;99.90;;;;;;5058305;28;20061;-80
2023/04/18 08:06:55;;;;;;;28.58;12.30;;;9.40;99.90;;;;;;5056974;28;20132;-76
2023/04/18 08:09:21;;;;;;;30.75;13.40;;;9.50;99.90;;;;;;5056454;28;20124;-79
2023/04/18 08:11:47;;;;;;;28.60;11.85;;;9.70;99.90;;;;;;5056613;28;20049;-77
2023/04/18 08:14:12;;;;;;;28.65;12.57;;;9.90;99.90;;;;;;5055444;28;20083;-76
2023/04/18 08:16:38;;;;;;;29.30;12.98;;;9.90;99.90;;;;;;5056322;28;20128;-79
2023/04/18 08:19:05;;;;;;;31.35;11.77;;;9.90;99.90;;;;;;5056524;28;20084;-73
2023/04/18 08:21:31;;;;;;;30.93;13.73;;;9.90;99.90;;;;;;5055036;28;20045;-77
2023/04/18 08:23:58;;;;;;;32.22;12.93;;;9.90;99.90;;;;;;5056057;28;20041;-79
2023/04/18 08:26:24;;;;;;;28.85;12.95;;;9.80;99.90;;;;;;5057009;28;20136;-78
2023/04/18 08:28:50;;;;;;;34.28;14.00;;;9.90;99.90;;;;;;5057438;28;20045;-82
2023/04/18 08:31:16;;;;;;;28.90;13.98;;;10.10;99.90;;;;;;5041316;28;20045;-80
2023/04/18 08:33:42;;;;;;;28.25;12.82;;;10.20;99.90;;;;;;5059306;28;20052;-78
2023/04/18 08:36:08;;;;;;;32.22;13.23;;;10.30;99.90;;;;;;5059021;28;20036;-78
2023/04/18 08:38:34;;;;;;;34.20;14.15;;;10.40;99.90;;;;;;5055714;28;20045;-80
2023/04/18 08:40:59;;;;;;;29.25;13.45;;;10.40;99.90;;;;;;5057872;28;20104;-79
2023/04/18 08:43:25;;;;;;;31.75;14.23;;;10.40;99.90;;;;;;5057818;28;20497;-77
2023/04/18 08:45:57;;;;;;;29.98;11.93;;;10.40;99.90;;;;;;5059180;28;20484;-82
2023/04/18 08:48:23;;;;;;;31.60;13.75;;;10.60;99.90;;;;;;5058550;28;20045;-80
2023/04/18 08:50:50;;;;;;;32.60;13.50;;;10.80;99.90;;;;;;5057647;28;20045;-77
2023/04/18 08:53:17;;;;;;;31.77;14.35;;;10.80;99.90;;;;;;5057170;28;20045;-81
2023/04/18 08:55:43;;;;;;;28.80;12.75;;;10.50;99.90;;;;;;5056414;28;20045;-78
2023/04/18 08:58:11;;;;;;;30.77;13.15;;;10.30;99.90;;;;;;5057461;28;20102;-77
2023/04/18 09:00:37;;;;;;;32.30;12.88;;;10.30;99.90;;;;;;5057088;28;20056;-79
2023/04/18 09:03:02;;;;;;;32.42;14.15;;;10.40;99.90;;;;;;5057439;28;20041;-78
2023/04/18 09:05:28;;;;;;;38.03;14.18;;;10.60;99.90;;;;;;5055356;28;20397;-79
2023/04/18 09:07:55;;;;;;;28.73;13.18;;;10.80;99.90;;;;;;5056759;28;20053;-80
2023/04/18 09:10:48;;;;;;;31.58;13.70;;;10.90;99.90;;;;;;5057493;28;20118;-79
2023/04/18 09:13:36;;;;;;;38.38;14.63;;;10.80;99.90;;;;;;5054639;28;20057;-80
2023/04/18 09:16:01;;;;;;;32.65;13.20;;;11.00;99.90;;;;;;5055931;28;20049;-77
2023/04/18 09:18:27;;;;;;;29.10;13.02;;;11.10;99.90;;;;;;5055814;28;20171;-78
2023/04/18 09:20:53;;;;;;;32.28;13.35;;;10.90;99.90;;;;;;5056703;28;20041;-80
2023/04/18 09:23:23;;;;;;;34.35;14.52;;;10.80;99.90;;;;;;5057093;28;20048;-81
2023/04/18 09:25:51;;;;;;;29.25;13.98;;;10.90;99.90;;;;;;5056739;28;20053;-79
2023/04/18 09:28:28;;;;;;;34.33;14.32;;;11.10;99.90;;;;;;5056312;28;20045;-78
2023/04/18 09:31:13;;;;;;;31.00;13.48;;;11.20;99.90;;;;;;5055308;28;20130;-76
2023/04/18 09:33:43;;;;;;;33.83;15.05;;;11.20;99.90;;;;;;5055761;28;20055;-78
2023/04/18 09:36:20;;;;;;;31.70;13.98;;;11.30;99.90;;;;;;5055021;28;20052;-77
2023/04/18 09:38:47;;;;;;;38.78;15.13;;;11.20;99.90;;;;;;5058943;28;20462;-78
2023/04/18 09:41:17;;;;;;;35.53;15.35;;;11.20;99.90;;;;;;5057223;28;20045;-78
2023/04/18 09:43:44;;;;;;;33.78;15.02;;;11.30;99.90;;;;;;5058668;28;20052;-80
2023/04/18 09:46:11;;;;;;;30.38;14.38;;;11.40;99.90;;;;;;5056791;28;20389;-78
2023/04/18 09:48:38;;;;;;;38.75;15.25;;;11.60;99.90;;;;;;5038355;28;20053;-77
2023/04/18 09:51:12;;;;;;;;;;;11.60;99.90;;;;;;5056490;28;20045;-79
2023/04/18 09:53:39;;;;;;;30.73;13.65;;;11.50;99.90;;;;;;5057631;28;20078;-78
2023/04/18 09:56:08;;;;;;;34.90;14.88;;;11.40;99.90;;;;;;5057768;28;20389;-81
2023/04/18 09:58:40;;;;;;;34.15;14.77;;;11.30;99.90;;;;;;5057626;28;20059;-82
2023/04/18 10:01:06;;;;;;;32.88;14.13;;;11.40;99.90;;;;;;5056730;28;20041;-80
2023/04/18 10:03:41;;;;;;;35.93;15.13;;;11.10;99.90;;;;;;5055398;28;20147;-78
2023/04/18 10:06:08;;;;;;;31.92;14.60;;;11.30;99.90;;;;;;5055264;28;20369;-82
2023/04/18 10:08:34;;;;;;;36.33;15.60;;;11.40;99.90;;;;;;5055280;28;20049;-81
2023/04/18 10:11:00;;;;;;;35.80;15.10;;;11.50;99.90;;;;;;5036589;28;20067;-81
2023/04/18 10:13:28;;;;;;;32.53;15.32;;;11.50;99.90;;;;;;5054931;28;20052;-79
2023/04/18 10:15:54;;;;;;;39.85;15.88;;;11.60;99.90;;;;;;5055190;28;20056;-78
2023/04/18 10:18:23;;;;;;;34.58;15.10;;;11.80;99.90;;;;;;5055660;28;20397;-80
2023/04/18 10:20:49;;;;;;;37.83;15.27;;;11.90;99.90;;;;;;5055435;28;20052;-79
2023/04/18 10:23:37;;;;;;;32.08;14.50;;;11.80;99.90;;;;;;5056978;28;20048;-77
2023/04/18 10:26:04;;;;;;;31.60;14.20;;;11.70;99.90;;;;;;5054398;28;20045;-76
2023/04/18 10:28:53;;;;;;;35.30;15.05;;;11.80;99.90;;;;;;5054013;28;20092;-79
2023/04/18 10:31:21;;;;;;;35.03;14.55;;;11.80;99.90;;;;;;5054494;28;20052;-81
2023/04/18 10:33:48;;;;;;;36.13;15.68;;;12.00;99.90;;;;;;5053039;28;20079;-76
2023/04/18 10:36:17;;;;;;;29.67;13.38;;;12.10;99.90;;;;;;5054640;28;20068;-77
2023/04/18 10:38:48;;;;;;;33.45;13.25;;;12.10;99.90;;;;;;5055119;28;20119;-80
2023/04/18 10:41:14;;;;;;;32.65;14.15;;;12.10;99.90;;;;;;5053913;28;20251;-79
2023/04/18 10:44:05;;;;;;;31.00;14.55;;;12.10;99.90;;;;;;5054119;28;20099;-78
2023/04/18 10:46:35;;;;;;;28.10;12.57;;;12.40;99.90;;;;;;5053863;28;20056;-77
2023/04/18 10:49:13;;;;;;;32.88;12.75;;;12.50;99.90;;;;;;5053735;28;20056;-80
2023/04/18 10:51:39;;;;;;;28.20;11.52;;;12.60;99.90;;;;;;5053544;28;20045;-77
2023/04/18 10:54:08;;;;;;;23.52;11.55;;;12.60;99.90;;;;;;5053232;28;20071;-75
2023/04/18 10:56:34;;;;;;;25.58;12.40;;;12.60;99.90;;;;;;5054652;28;20528;-78
2023/04/18 10:59:02;;;;;;;26.77;12.23;;;12.50;99.90;;;;;;5053993;28;20049;-79
2023/04/18 11:01:35;;;;;;;28.48;13.20;;;12.50;99.90;;;;;;5053152;28;20045;-82
2023/04/18 11:04:09;;;;;;;27.60;12.40;;;12.70;99.90;;;;;;5055228;28;20048;-81
2023/04/18 11:06:46;;;;;;;33.97;13.50;;;13.00;99.90;;;;;;5055020;28;20162;-85
2023/04/18 11:09:13;;;;;;;28.48;12.30;;;13.40;99.90;;;;;;5054958;28;20072;-82
2023/04/18 11:11:39;;;;;;;31.33;14.70;;;13.80;99.90;;;;;;5054725;28;20049;-79
2023/04/18 11:14:05;;;;;;;31.52;13.98;;;14.00;99.90;;;;;;5052930;28;20049;-78
2023/04/18 11:16:32;;;;;;;27.35;13.75;;;14.30;99.90;;;;;;5054805;28;20048;-84
2023/04/18 11:18:58;;;;;;;30.55;14.13;;;14.50;99.90;;;;;;5052563;28;20060;-83
2023/04/18 11:21:26;;;;;;;26.67;13.27;;;14.60;99.90;;;;;;5053925;28;20053;-78
2023/04/18 11:23:56;;;;;;;34.80;17.10;;;14.70;99.90;;;;;;5053251;28;20056;-77
2023/04/18 11:26:26;;;;;;;28.63;15.10;;;14.80;99.90;;;;;;5054001;28;20055;-78
2023/04/18 11:28:55;;;;;;;31.65;15.77;;;14.70;99.90;;;;;;5055716;28;20048;-81
2023/04/18 11:31:23;;;;;;;29.75;16.00;;;14.40;99.90;;;;;;5055299;28;20045;-82
2023/04/18 11:33:49;;;;;;;30.58;18.65;;;14.30;99.90;;;;;;5055354;28;20048;-80
2023/04/18 11:36:20;;;;;;;31.08;16.17;;;14.00;99.70;;;;;;5053265;28;20052;-77
2023/04/18 11:38:46;;;;;;;29.38;15.48;;;14.20;99.90;;;;;;5055657;28;20393;-84
2023/04/18 11:41:14;;;;;;;32.70;17.83;;;14.20;99.90;;;;;;5055497;28;20431;-82
2023/04/18 11:43:43;;;;;;;31.02;16.38;;;14.30;99.90;;;;;;5041326;28;20049;-76
2023/04/18 11:46:09;;;;;;;29.90;14.93;;;14.60;99.90;;;;;;5056080;28;20489;-77
2023/04/18 11:48:38;;;;;;;32.90;17.38;;;14.80;99.90;;;;;;5057505;28;20052;-81
2023/04/18 11:51:05;;;;;;;30.77;16.15;;;14.90;99.50;;;;;;5056324;28;20091;-79
2023/04/18 11:53:35;;;;;;;29.58;15.80;;;15.00;99.60;;;;;;5057367;28;20049;-77
2023/04/18 11:56:02;;;;;;;27.50;16.00;;;14.90;99.50;;;;;;5056870;28;20049;-79
2023/04/18 11:58:35;;;;;;;29.10;16.85;;;14.80;99.20;;;;;;5056003;28;20060;-81
2023/04/18 12:01:15;;;;;;;30.27;15.13;;;14.20;98.40;;;;;;5058021;28;20048;-81
2023/04/18 12:03:43;;;;;;;29.60;15.90;;;14.10;99.00;;;;;;5039167;28;20045;-79
2023/04/18 12:06:09;;;;;;;28.70;15.90;;;14.10;99.70;;;;;;5056952;28;20052;-77
2023/04/18 12:08:35;;;;;;;30.95;16.17;;;14.10;99.90;;;;;;5056809;28;20148;-79
2023/04/18 12:11:01;;;;;;;25.95;14.30;;;14.00;99.40;;;;;;5072016;28;20061;-75
2023/04/18 12:13:31;;;;;;;28.35;14.80;;;14.20;99.30;;;;;;5057560;28;20367;-79
2023/04/18 12:16:00;;;;;;;30.05;15.15;;;14.20;99.10;;;;;;5057471;28;20049;-80
2023/04/18 12:18:26;;;;;;;29.13;14.55;;;14.10;99.00;;;;;;5056093;28;20052;-84
2023/04/18 12:20:57;;;;;;;26.65;14.05;;;14.30;99.00;;;;;;5056538;28;20037;-79
2023/04/18 12:23:34;;;;;;;28.58;14.52;;;14.50;99.10;;;;;;5057066;28;20416;-80
2023/04/18 12:26:00;;;;;;;;;;;14.50;98.70;;;;;;5057705;28;20051;-83
2023/04/18 12:28:26;;;;;;;23.50;12.88;;;14.40;98.50;;;;;;5056334;28;19928;-78
2023/04/18 12:30:52;;;;;;;24.88;13.32;;;14.40;98.50;;;;;;5056064;28;20048;-76
2023/04/18 12:33:18;;;;;;;25.58;15.43;;;14.40;97.80;;;;;;5039209;28;20101;-81
2023/04/18 12:35:44;;;;;;;25.50;13.48;;;14.20;97.50;;;;;;5057425;28;20048;-81